createdAt,value
2019-04-07T00:00:01.935Z,8.12
2019-04-07T00:02:32.435Z,8.07
2019-04-07T00:05:11.123Z,7.99
2019-04-07T00:07:38.016Z,7.93
2019-04-07T00:10:11.176Z,7.88
2019-04-07T00:12:55.748Z,7.81
2019-04-07T00:15:27.766Z,7.78
2019-04-07T00:18:01.372Z,7.76
2019-04-07T00:20:32.119Z,7.81
2019-04-07T00:23:03.332Z,7.80
2019-04-07T00:25:33.707Z,7.80
2019-04-07T00:28:04.095Z,7.77
2019-04-07T00:30:37.495Z,7.75
2019-04-07T00:33:23.107Z,7.76
2019-04-07T00:35:55.915Z,7.75
2019-04-07T00:38:28.356Z,7.75
2019-04-07T00:41:03.095Z,7.75
2019-04-07T00:43:34.367Z,7.67
2019-04-07T00:46:05.643Z,7.62
2019-04-07T00:48:39.869Z,7.56
2019-04-07T00:51:13.060Z,7.53
2019-04-07T00:53:45.707Z,7.53
2019-04-07T00:56:24.702Z,7.55
2019-04-07T00:59:09.976Z,7.54
2019-04-07T01:01:47.229Z,7.46
2019-04-07T01:04:19.887Z,7.43
2019-04-07T01:06:51.731Z,7.46
2019-04-07T01:09:25.307Z,7.46
2019-04-07T01:11:59.539Z,7.46
2019-04-07T01:14:30.558Z,7.48
2019-04-07T01:17:03.682Z,7.49
2019-04-07T01:19:36.564Z,7.51
2019-04-07T01:22:41.060Z,7.55
2019-04-07T01:28:31.685Z,7.63
2019-04-07T01:31:03.454Z,7.76
2019-04-07T01:34:01.198Z,7.82
2019-04-07T01:36:38.234Z,7.83
2019-04-07T01:39:22.996Z,7.85
2019-04-07T01:42:02.619Z,7.83
2019-04-07T01:44:44.644Z,7.78
2019-04-07T01:47:30.524Z,7.69
2019-04-07T01:50:19.841Z,7.59
2019-04-07T01:53:03.496Z,7.50
2019-04-07T01:55:58.927Z,7.45
2019-04-07T01:58:52.430Z,7.45
2019-04-07T02:01:40.085Z,7.49
2019-04-07T02:04:32.468Z,7.59
2019-04-07T02:07:24.614Z,7.83
2019-04-07T02:10:25.268Z,7.99
2019-04-07T02:13:18.768Z,8.16
2019-04-07T02:16:11.444Z,8.19
2019-04-07T02:19:21.896Z,8.17
2019-04-07T02:22:17.366Z,8.14
2019-04-07T02:25:21.971Z,8.10
2019-04-07T02:28:16.480Z,7.97
2019-04-07T02:31:19.696Z,7.76
2019-04-07T02:34:00.126Z,7.52
2019-04-07T02:36:53.932Z,7.30
2019-04-07T02:40:00.247Z,7.12
2019-04-07T02:42:43.748Z,6.91
2019-04-07T02:45:36.811Z,6.75
2019-04-07T02:48:29.336Z,6.65
2019-04-07T02:51:11.241Z,6.56
2019-04-07T02:53:50.963Z,6.46
2019-04-07T02:56:46.193Z,6.36
2019-04-07T02:59:29.341Z,6.26
2019-04-07T03:02:34.679Z,6.18
2019-04-07T03:05:17.252Z,6.14
2019-04-07T03:08:09.155Z,6.13
2019-04-07T03:11:16.054Z,6.09
2019-04-07T03:13:54.955Z,6.06
2019-04-07T03:16:52.815Z,5.99
2019-04-07T03:19:30.576Z,5.94
2019-04-07T03:22:23.733Z,5.94
2019-04-07T03:25:16.184Z,5.89
2019-04-07T03:28:02.183Z,5.87
2019-04-07T03:30:42.362Z,5.84
2019-04-07T03:33:28.393Z,5.82
2019-04-07T03:36:18.593Z,5.82
2019-04-07T03:38:57.895Z,5.81
2019-04-07T03:41:39.985Z,5.79
2019-04-07T03:44:29.144Z,5.76
2019-04-07T03:47:17.116Z,5.72
2019-04-07T03:50:07.188Z,5.65
2019-04-07T03:52:56.579Z,5.57
2019-04-07T03:55:47.239Z,5.50
2019-04-07T03:58:25.812Z,5.44
2019-04-07T04:01:35.389Z,5.39
2019-04-07T04:04:41.429Z,5.37
2019-04-07T04:07:34.927Z,5.33
2019-04-07T04:10:06.974Z,5.32
2019-04-07T04:13:02.992Z,5.36
2019-04-07T04:15:46.907Z,5.46
2019-04-07T04:18:16.780Z,5.46
2019-04-07T04:20:46.557Z,5.45
2019-04-07T04:23:17.821Z,5.43
2019-04-07T04:25:47.628Z,5.44
2019-04-07T04:28:17.084Z,5.45
2019-04-07T04:30:46.650Z,5.46
2019-04-07T04:33:16.126Z,5.43
2019-04-07T04:35:46.644Z,5.37
2019-04-07T04:38:16.581Z,5.32
2019-04-07T04:40:46.009Z,5.24
2019-04-07T04:43:15.696Z,5.20
2019-04-07T04:45:46.044Z,5.18
2019-04-07T04:48:15.643Z,5.18
2019-04-07T04:50:45.787Z,5.20
2019-04-07T04:53:15.361Z,5.18
2019-04-07T04:55:44.696Z,5.15
2019-04-07T04:58:14.060Z,5.15
2019-04-07T05:00:43.458Z,5.19
2019-04-07T05:03:12.852Z,5.28
2019-04-07T05:05:42.299Z,5.32
2019-04-07T05:08:12.770Z,5.33
2019-04-07T05:10:42.741Z,5.36
2019-04-07T05:13:12.145Z,5.37
2019-04-07T05:15:42.100Z,5.36
2019-04-07T05:18:12.032Z,5.38
2019-04-07T05:20:42.045Z,5.38
2019-04-07T05:23:12.157Z,5.39
2019-04-07T05:25:41.592Z,5.42
2019-04-07T05:28:11.315Z,5.44
2019-04-07T05:30:41.452Z,5.48
2019-04-07T05:33:11.102Z,5.53
2019-04-07T05:35:40.623Z,5.57
2019-04-07T05:38:11.312Z,5.64
2019-04-07T05:40:41.011Z,5.69
2019-04-07T05:43:10.715Z,5.77
2019-04-07T05:45:41.056Z,5.90
2019-04-07T05:48:10.755Z,6.00
2019-04-07T05:50:40.709Z,6.10
2019-04-07T05:53:14.600Z,6.24
2019-04-07T05:55:42.617Z,6.34
2019-04-07T05:58:14.807Z,6.47
2019-04-07T06:00:45.732Z,6.62
2019-04-07T06:03:15.389Z,6.75
2019-04-07T06:05:48.295Z,6.85
2019-04-07T06:08:25.731Z,6.95
2019-04-07T06:10:48.811Z,7.07
2019-04-07T06:13:18.953Z,7.22
2019-04-07T06:15:51.377Z,7.36
2019-04-07T06:18:21.220Z,7.50
2019-04-07T06:20:52.011Z,7.62
2019-04-07T06:23:23.313Z,7.72
2019-04-07T06:25:55.586Z,7.86
2019-04-07T06:28:24.952Z,8.01
2019-04-07T06:30:54.381Z,8.16
2019-04-07T06:33:23.900Z,8.31
2019-04-07T06:35:55.089Z,8.46
2019-04-07T06:38:33.120Z,8.60
2019-04-07T06:41:03.103Z,8.73
2019-04-07T06:43:35.145Z,8.83
2019-04-07T06:46:27.676Z,8.95
2019-04-07T06:49:15.998Z,9.10
2019-04-07T06:52:07.361Z,9.23
2019-04-07T06:54:57.609Z,9.56
2019-04-07T06:57:50.696Z,9.79
2019-04-07T07:00:38.888Z,9.91
2019-04-07T07:03:33.523Z,10.05
2019-04-07T07:06:20.552Z,10.06
2019-04-07T07:09:00.857Z,10.07
2019-04-07T07:12:01.639Z,10.12
2019-04-07T07:14:55.102Z,10.23
2019-04-07T07:17:38.516Z,10.39
2019-04-07T07:20:17.674Z,10.55
2019-04-07T07:22:51.171Z,10.71
2019-04-07T07:25:20.701Z,10.80
2019-04-07T07:27:51.152Z,10.91
2019-04-07T07:30:21.374Z,11.02
2019-04-07T07:32:52.918Z,11.12
2019-04-07T07:35:22.412Z,11.26
2019-04-07T07:37:58.130Z,11.45
2019-04-07T07:40:26.481Z,11.55
2019-04-07T07:42:58.102Z,11.74
2019-04-07T07:45:27.420Z,11.85
2019-04-07T07:47:57.852Z,11.91
2019-04-07T07:50:28.350Z,11.99
2019-04-07T07:52:58.291Z,12.16
2019-04-07T07:55:33.726Z,12.29
2019-04-07T07:58:01.039Z,12.52
2019-04-07T08:00:30.968Z,12.71
2019-04-07T08:03:00.575Z,12.95
2019-04-07T08:05:33.385Z,13.03
2019-04-07T08:08:01.748Z,13.08
2019-04-07T08:10:31.288Z,13.33
2019-04-07T08:13:05.084Z,13.32
2019-04-07T08:15:33.381Z,13.57
2019-04-07T08:18:07.180Z,13.73
2019-04-07T08:20:42.933Z,13.79
2019-04-07T08:23:13.339Z,13.79
2019-04-07T08:25:43.740Z,14.24
2019-04-07T08:28:13.574Z,14.42
2019-04-07T08:30:47.200Z,14.27
2019-04-07T08:33:14.723Z,14.55
2019-04-07T08:35:45.909Z,14.71
2019-04-07T08:38:18.637Z,14.74
2019-04-07T08:40:46.917Z,14.83
2019-04-07T08:43:21.423Z,14.83
2019-04-07T08:45:50.325Z,15.14
2019-04-07T08:48:21.529Z,15.39
2019-04-07T08:50:59.835Z,15.65
2019-04-07T08:53:29.503Z,15.68
2019-04-07T08:55:59.947Z,15.41
2019-04-07T08:58:47.819Z,15.55
2019-04-07T09:01:20.314Z,15.74
2019-04-07T09:03:50.750Z,15.89
2019-04-07T09:15:04.007Z,16.41
2019-04-07T10:43:31.907Z,19.50
2019-04-07T10:58:50.281Z,19.85
2019-04-07T11:01:49.127Z,19.91
2019-04-07T11:04:47.369Z,19.89
2019-04-07T11:11:31.462Z,20.28
2019-04-07T11:17:54.468Z,20.48
2019-04-07T11:20:55.772Z,20.70
2019-04-07T11:27:37.642Z,21.05
2019-04-07T11:30:55.452Z,20.95
2019-04-07T11:34:22.681Z,21.07
2019-04-07T11:37:30.880Z,21.09
2019-04-07T11:40:42.046Z,20.77
2019-04-07T11:43:58.643Z,20.83
2019-04-07T11:50:02.400Z,21.19
2019-04-07T12:01:12.811Z,21.74
2019-04-07T12:04:37.939Z,22.21
2019-04-07T12:07:29.173Z,22.53
2019-04-07T12:10:33.208Z,22.58
2019-04-07T12:13:16.534Z,22.82
2019-04-07T12:16:27.723Z,22.81
2019-04-07T12:19:39.749Z,22.73
2019-04-07T12:25:48.583Z,21.54
2019-04-07T12:29:05.896Z,21.87
2019-04-07T12:31:57.758Z,21.86
2019-04-07T12:34:53.539Z,22.01
2019-04-07T12:37:43.742Z,22.43
2019-04-07T12:49:56.282Z,24.85
2019-04-07T12:53:32.133Z,24.34
2019-04-07T12:59:41.156Z,24.59
2019-04-07T13:02:53.236Z,24.06
2019-04-07T13:09:37.998Z,25.89
2019-04-07T13:41:59.042Z,23.29
2019-04-07T13:45:19.212Z,23.68
2019-04-07T13:48:18.392Z,24.60
2019-04-07T14:16:04.033Z,24.42
2019-04-07T16:48:58.467Z,20.47
2019-04-07T16:51:58.363Z,20.34
2019-04-07T16:54:52.731Z,19.84
2019-04-07T16:57:54.842Z,19.13
2019-04-07T17:04:00.864Z,18.40
2019-04-07T17:06:37.738Z,18.22
2019-04-07T17:09:25.038Z,18.32
2019-04-07T17:12:00.370Z,18.16
2019-04-07T17:14:35.980Z,17.79
2019-04-07T17:17:06.734Z,17.35
2019-04-07T17:19:37.288Z,17.04
2019-04-07T17:22:11.875Z,16.93
2019-04-07T17:24:42.693Z,16.86
2019-04-07T17:27:13.093Z,16.82
2019-04-07T17:29:44.448Z,16.74
2019-04-07T17:32:15.143Z,16.71
2019-04-07T17:34:45.352Z,16.74
2019-04-07T17:37:15.163Z,16.76
2019-04-07T17:40:00.221Z,16.59
2019-04-07T17:42:30.333Z,16.32
2019-04-07T17:45:21.308Z,15.97
2019-04-07T17:48:09.836Z,15.72
2019-04-07T17:50:48.710Z,15.35
2019-04-07T17:53:28.516Z,14.94
2019-04-07T17:56:29.705Z,14.72
2019-04-07T17:59:31.073Z,14.47
2019-04-07T18:02:11.911Z,14.21
2019-04-07T18:05:10.618Z,14.07
2019-04-07T18:08:02.941Z,13.91
2019-04-07T18:10:57.985Z,13.73
2019-04-07T18:13:49.957Z,13.62
2019-04-07T18:16:44.747Z,13.47
2019-04-07T18:19:43.126Z,13.32
2019-04-07T18:22:24.830Z,13.27
2019-04-07T18:25:17.320Z,13.26
2019-04-07T18:28:06.843Z,13.19
2019-04-07T18:31:04.394Z,13.13
2019-04-07T18:33:52.602Z,13.10
2019-04-07T18:36:47.118Z,13.05
2019-04-07T18:39:41.914Z,12.94
2019-04-07T18:42:36.642Z,12.78
2019-04-07T18:45:19.353Z,12.57
2019-04-07T18:48:11.342Z,12.38
2019-04-07T18:51:03.116Z,12.27
2019-04-07T18:53:48.912Z,12.19
2019-04-07T18:56:38.615Z,12.13
2019-04-07T18:59:21.531Z,12.09
2019-04-07T19:02:19.486Z,12.07
2019-04-07T19:05:00.806Z,12.06
2019-04-07T19:07:37.945Z,12.05
2019-04-07T19:10:39.062Z,12.01
2019-04-07T19:13:36.932Z,11.99
2019-04-07T19:16:28.478Z,11.96
2019-04-07T19:19:15.222Z,11.93
2019-04-07T19:22:10.948Z,11.88
2019-04-07T19:25:04.223Z,11.79
2019-04-07T19:27:48.339Z,11.69
2019-04-07T19:30:45.353Z,11.57
2019-04-07T19:33:35.619Z,11.48
2019-04-07T19:36:23.999Z,11.45
2019-04-07T19:39:09.050Z,11.40
2019-04-07T19:41:56.380Z,11.36
2019-04-07T19:44:53.083Z,11.28
2019-04-07T19:47:39.756Z,11.18
2019-04-07T19:50:28.570Z,11.05
2019-04-07T19:53:20.400Z,10.92
2019-04-07T19:56:25.256Z,10.78
2019-04-07T19:59:12.851Z,10.64
2019-04-07T20:02:10.464Z,10.50
2019-04-07T20:04:55.078Z,10.40
2019-04-07T20:07:52.739Z,10.29
2019-04-07T20:10:30.460Z,10.22
2019-04-07T20:13:22.063Z,10.17
2019-04-07T20:16:00.476Z,10.14
2019-04-07T20:18:58.591Z,10.09
2019-04-07T20:21:49.379Z,10.10
2019-04-07T20:24:36.689Z,10.07
2019-04-07T20:27:13.640Z,10.04
2019-04-07T20:30:02.976Z,10.03
2019-04-07T20:32:40.167Z,10.03
2019-04-07T20:35:28.587Z,9.96
2019-04-07T20:38:19.213Z,9.87
2019-04-07T20:41:13.613Z,9.81
2019-04-07T20:43:51.287Z,9.76
2019-04-07T20:46:47.444Z,9.68
2019-04-07T20:49:35.718Z,9.62
2019-04-07T20:52:34.222Z,9.57
2019-04-07T20:55:15.592Z,9.54
2019-04-07T20:58:15.198Z,9.55
2019-04-07T21:01:00.701Z,9.58
2019-04-07T21:03:47.652Z,9.63
2019-04-07T21:06:38.058Z,9.66
2019-04-07T21:09:33.345Z,9.69
2019-04-07T21:12:08.157Z,9.71
2019-04-07T21:15:16.919Z,9.73
2019-04-07T21:17:39.654Z,9.74
2019-04-07T21:20:20.084Z,9.79
2019-04-07T21:23:17.136Z,9.83
2019-04-07T21:25:56.024Z,9.92
2019-04-07T21:28:39.026Z,9.99
2019-04-07T21:31:26.154Z,10.06
2019-04-07T21:34:30.787Z,10.11
2019-04-07T21:37:23.039Z,10.15
2019-04-07T21:40:10.346Z,10.19
2019-04-07T21:43:17.953Z,10.26
2019-04-07T21:46:07.945Z,10.30
2019-04-07T21:48:57.975Z,10.36
2019-04-07T21:51:49.842Z,10.38
2019-04-07T21:54:39.119Z,10.41
2019-04-07T21:57:30.201Z,10.45
2019-04-07T22:00:21.574Z,10.49
2019-04-07T22:03:08.788Z,10.50
2019-04-07T22:05:49.016Z,10.54
2019-04-07T22:08:27.091Z,10.66
2019-04-07T22:10:57.364Z,10.77
2019-04-07T22:13:28.527Z,10.90
2019-04-07T22:16:01.690Z,10.95
2019-04-07T22:18:29.651Z,10.98
2019-04-07T22:20:59.243Z,10.96
2019-04-07T22:23:30.703Z,10.90
2019-04-07T22:26:00.058Z,10.82
2019-04-07T22:28:30.312Z,10.73
2019-04-07T22:31:01.501Z,10.65
2019-04-07T22:33:32.537Z,10.55
2019-04-07T22:36:02.343Z,10.46
2019-04-07T22:38:31.798Z,10.35
2019-04-07T22:41:02.703Z,10.24
2019-04-07T22:43:32.382Z,10.15
2019-04-07T22:46:09.349Z,10.07
2019-04-07T22:48:33.089Z,9.98
2019-04-07T22:51:04.256Z,9.93
2019-04-07T22:53:35.002Z,9.89
2019-04-07T22:56:07.811Z,9.85
2019-04-07T22:58:36.175Z,9.83
2019-04-07T23:01:05.698Z,9.77
2019-04-07T23:03:35.299Z,9.70
2019-04-07T23:06:05.192Z,9.61
2019-04-07T23:08:35.079Z,9.49
2019-04-07T23:11:06.431Z,9.35
2019-04-07T23:13:37.480Z,9.19
2019-04-07T23:16:12.819Z,9.01
2019-04-07T23:18:38.553Z,8.84
2019-04-07T23:21:08.100Z,8.68
2019-04-07T23:23:38.252Z,8.55
2019-04-07T23:26:07.959Z,8.46
2019-04-07T23:28:37.328Z,8.39
2019-04-07T23:31:07.517Z,8.29
2019-04-07T23:33:38.259Z,8.22
2019-04-07T23:36:09.450Z,8.17
2019-04-07T23:38:39.125Z,8.13
2019-04-07T23:41:09.555Z,8.06
2019-04-07T23:43:39.883Z,7.97
2019-04-07T23:46:19.827Z,7.90
2019-04-07T23:48:41.008Z,7.87
2019-04-07T23:51:10.528Z,7.85
2019-04-07T23:54:08.858Z,7.83
2019-04-07T23:56:39.517Z,7.81
2019-04-07T23:59:10.220Z,7.78
